Hamnavoe — VSTY7 — position and weather

sailwx.info

Track history (hours):
 
Tides and Currents Weather Stations Pressure Air Temp Water Temp Dewpoint Dewpoint Depression Visibility Wind Speed Wind Dir Waves Ship Positions

Hamnavoe

Operator: NorthLink Orkey & Shetland Ferries Ltd

Last reported at 2017-Aug-20 20:29 UTC. Time now 2017-Aug-20 20:45 UTC.
Position N 58°58' W 003°18'.

Length 112 m; draft 4.2 m.

Type: Ship. MMSI: 235449000.

Date/timePositionNaut miles runAvg speedWind from/ knotsBaromVisibWave heightAir tempDewpointWater temp
2017-Aug-20 20:29N 58°58' W 003°18'0 0.0
2017-Aug-20 19:59N 58°58' W 003°18'0 0.0
2017-Aug-20 19:30N 58°58' W 003°18'611.3
2017-Aug-20 19:00N 58°54' W 003°26'816.0
2017-Aug-20 18:30N 58°47' W 003°30'8 5.7
2017-Aug-20 17:02N 58°38' W 003°31'118.0
2017-Aug-20 16:59N 58°39' W 003°31'817.5
2017-Aug-20 16:30N 58°47' W 003°29'917.6
2017-Aug-20 16:00N 58°56' W 003°25'4 7.5
2017-Aug-20 15:27N 58°58' W 003°18'0 0.0
2017-Aug-20 14:57N 58°58' W 003°18'0 0.0
2017-Aug-20 14:27N 58°58' W 003°18'0 0.0
2017-Aug-20 13:57N 58°58' W 003°18'0 0.0
2017-Aug-20 13:27N 58°58' W 003°18'0 0.0
2017-Aug-20 12:57N 58°58' W 003°18'0 0.1
2017-Aug-20 12:30N 58°58' W 003°18'611.3
2017-Aug-20 12:00N 58°54' W 003°26'917.4
2017-Aug-20 11:30N 58°46' W 003°30'816.7
2017-Aug-20 11:00N 58°38' W 003°31'1 1.7
2017-Aug-20 10:25N 58°37' W 003°32'0 0.0
2017-Aug-20 10:00N 58°37' W 003°32'0 0.0
2017-Aug-20 09:30N 58°37' W 003°32'714.3
2017-Aug-20 09:00N 58°44' W 003°30'918.2
2017-Aug-20 08:30N 58°53' W 003°28'714.1
2017-Aug-20 08:00N 58°57' W 003°18'1 1.0
2017-Aug-20 07:27N 58°58' W 003°18'0 0.0
2017-Aug-20 06:57N 58°58' W 003°18'0 0.0
2017-Aug-20 06:27N 58°58' W 003°18'0 0.0
2017-Aug-20 05:57N 58°58' W 003°18'0 0.0
2017-Aug-20 05:27N 58°58' W 003°18'0 0.0
2017-Aug-20 04:57N 58°58' W 003°18'0 0.0
2017-Aug-20 04:27N 58°58' W 003°18'0 0.0
2017-Aug-20 03:57N 58°58' W 003°18'0 0.0
2017-Aug-20 03:27N 58°58' W 003°18'0 0.0
2017-Aug-20 02:57N 58°58' W 003°18'0 0.0
2017-Aug-20 02:27N 58°58' W 003°18'0 0.0
2017-Aug-20 01:57N 58°58' W 003°18'0 0.0
2017-Aug-20 01:27N 58°58' W 003°18'0 0.0
2017-Aug-20 00:57N 58°58' W 003°18'0 0.0
2017-Aug-20 00:15N 58°58' W 003°18'0 0.0
2017-Aug-19 23:03N 58°58' W 003°18'0 0.0
2017-Aug-19 22:57N 58°58' W 003°18'0 0.0
2017-Aug-19 22:21N 58°58' W 003°18'0 0.0
2017-Aug-19 21:57N 58°58' W 003°18'0 0.0
2017-Aug-19 21:30N 58°58' W 003°18'0 0.0
2017-Aug-19 20:57N 58°58' W 003°18'0 0.0
2017-Aug-19 20:27N 58°58' W 003°18'0 0.0
2017-Aug-19 19:59N 58°58' W 003°18'0 0.1
2017-Aug-19 19:30N 58°58' W 003°18'612.8
2017-Aug-19 19:00N 58°54' W 003°27'815.8
2017-Aug-19 18:30N 58°46' W 003°29'8 5.7
2017-Aug-19 17:07N 58°38' W 003°31'217.7
2017-Aug-19 17:00N 58°40' W 003°31'917.6
2017-Aug-19 16:30N 58°49' W 003°29'816.8
2017-Aug-19 16:00N 58°56' W 003°23'3 6.3
2017-Aug-19 15:30N 58°58' W 003°18'0 0.0
2017-Aug-19 15:00N 58°58' W 003°18'1 1.0
2017-Aug-19 14:01N 58°57' W 003°18'714.8
2017-Aug-19 13:30N 58°52' W 003°28'917.2
2017-Aug-19 13:00N 58°43' W 003°29'613.0
2017-Aug-19 12:30N 58°37' W 003°32'0 0.0
2017-Aug-19 12:00N 58°37' W 003°32'5 9.8
2017-Aug-19 11:30N 58°41' W 003°30'917.4
2017-Aug-19 11:00N 58°50' W 003°28'714.9
2017-Aug-19 10:30N 58°57' W 003°22'2 4.5
2017-Aug-19 10:00N 58°58' W 003°18'0 0.0
2017-Aug-19 09:30N 58°58' W 003°18'2 3.2
2017-Aug-19 09:00N 58°57' W 003°20'815.2
2017-Aug-19 08:30N 58°51' W 003°29'817.0
2017-Aug-19 08:00N 58°42' W 003°30'611.0
2017-Aug-19 07:30N 58°37' W 003°32'0 0.3
2017-Aug-19 07:00N 58°37' W 003°32'817.1
2017-Aug-19 06:30N 58°45' W 003°30'918.2
2017-Aug-19 06:00N 58°54' W 003°27'611.9
2017-Aug-19 05:31N 58°58' W 003°18'0 0.4
2017-Aug-19 04:55N 58°58' W 003°18'0 0.0
2017-Aug-19 03:07N 58°58' W 003°18'0 0.0
2017-Aug-19 01:56N 58°58' W 003°18'0 0.0
2017-Aug-19 00:41N 58°58' W 003°18'0 0.0
2017-Aug-19 00:26N 58°58' W 003°18'0 0.0
2017-Aug-18 23:31N 58°58' W 003°18'0 0.0
2017-Aug-18 23:19N 58°58' W 003°18'0 0.0
2017-Aug-18 22:57N 58°58' W 003°18'0 0.0
2017-Aug-18 22:15N 58°58' W 003°18'0 0.0
2017-Aug-18 21:51N 58°58' W 003°18'0 0.0
2017-Aug-18 21:17N 58°58' W 003°18'0 0.0
2017-Aug-18 20:57N 58°58' W 003°18'0 0.0
2017-Aug-18 20:27N 58°58' W 003°18'0 0.0
2017-Aug-18 19:57N 58°58' W 003°18'0 0.4
2017-Aug-18 19:30N 58°58' W 003°18'713.7
2017-Aug-18 19:00N 58°53' W 003°27'1016.8
2017-Aug-18 18:23N 58°43' W 003°31'6 5.5
2017-Aug-18 17:17N 58°37' W 003°32'3 8.9
2017-Aug-18 16:55N 58°40' W 003°31'717.9
2017-Aug-18 16:30N 58°47' W 003°29'918.4
2017-Aug-18 16:00N 58°56' W 003°25'4 7.8
2017-Aug-18 15:29N 58°58' W 003°18'0 0.0
2017-Aug-18 14:59N 58°58' W 003°18'0 0.0
2017-Aug-18 13:59N 58°58' W 003°18'1 2.1
2017-Aug-18 13:30N 58°57' W 003°18'815.2
2017-Aug-18 13:00N 58°51' W 003°28'918.0
2017-Aug-18 12:30N 58°42' W 003°30'6 7.8
2017-Aug-18 11:45N 58°37' W 003°32'0 0.5
2017-Aug-18 11:28N 58°37' W 003°32'716.0
2017-Aug-18 11:00N 58°44' W 003°29'917.4
2017-Aug-18 10:30N 58°52' W 003°28'714.5
2017-Aug-18 10:00N 58°57' W 003°18'0 0.9
2017-Aug-18 09:30N 58°58' W 003°18'1 2.0
2017-Aug-18 09:00N 58°57' W 003°17'714.5
2017-Aug-18 08:30N 58°52' W 003°28'918.0
2017-Aug-18 08:00N 58°43' W 003°30'6 9.5
2017-Aug-18 07:19N 58°37' W 003°32'0 0.3
2017-Aug-18 06:58N 58°37' W 003°32'816.3
2017-Aug-18 06:30N 58°44' W 003°30'918.0
2017-Aug-18 06:00N 58°53' W 003°28'713.7
2017-Aug-18 05:30N 58°57' W 003°18'0 0.6
2017-Aug-18 04:56N 58°58' W 003°18'0 0.0
2017-Aug-18 04:26N 58°58' W 003°18'0 0.0
2017-Aug-18 03:56N 58°58' W 003°18'0 0.0
2017-Aug-18 03:26N 58°58' W 003°18'0 0.0
2017-Aug-18 02:56N 58°58' W 003°18'0 0.0
2017-Aug-18 02:26N 58°58' W 003°18'0 0.0
2017-Aug-18 01:56N 58°58' W 003°18'0 0.0
2017-Aug-18 01:26N 58°58' W 003°18'0 0.0
2017-Aug-18 00:56N 58°58' W 003°18'0 0.0
2017-Aug-18 00:26N 58°58' W 003°18'0 0.0
2017-Aug-17 23:56N 58°58' W 003°18'0 0.0
2017-Aug-17 23:26N 58°58' W 003°18'0 0.0
2017-Aug-17 22:56N 58°58' W 003°18'0 0.0
2017-Aug-17 22:26N 58°58' W 003°18'0 0.0
2017-Aug-17 21:56N 58°58' W 003°18'0 0.0
2017-Aug-17 21:26N 58°58' W 003°18'0 0.0
2017-Aug-17 20:56N 58°58' W 003°18'0 0.0
2017-Aug-17 20:20N 58°58' W 003°18'0 0.0
2017-Aug-17 19:56N 58°58' W 003°18'1 3.3
2017-Aug-17 19:30N 58°57' W 003°19'815.4
2017-Aug-17 19:00N 58°50' W 003°28'10 4.9
2017-Aug-17 16:59N 58°40' W 003°30'817.7
2017-Aug-17 16:30N 58°49' W 003°28'816.6
2017-Aug-17 16:00N 58°57' W 003°22'3 5.2
2017-Aug-17 15:30N 58°58' W 003°18'0 0.0
2017-Aug-17 15:00N 58°58' W 003°18'0 0.0
2017-Aug-17 14:30N 58°58' W 003°18'0 0.0
2017-Aug-17 14:00N 58°58' W 003°18'1 1.2
2017-Aug-17 13:30N 58°57' W 003°17'714.9
2017-Aug-17 13:00N 58°52' W 003°28'918.3
2017-Aug-17 12:30N 58°43' W 003°28'7 9.3
2017-Aug-17 11:48N 58°37' W 003°32'0 0.3
2017-Aug-17 11:29N 58°37' W 003°32'715.4
2017-Aug-17 11:00N 58°44' W 003°30'917.2
2017-Aug-17 10:30N 58°52' W 003°28'714.6
2017-Aug-17 10:01N 58°57' W 003°18'0 0.9
2017-Aug-17 09:30N 58°58' W 003°18'1 2.0
2017-Aug-17 09:00N 58°57' W 003°18'714.8
2017-Aug-17 08:30N 58°52' W 003°28'918.5
2017-Aug-17 08:00N 58°42' W 003°30'611.8
2017-Aug-17 07:30N 58°37' W 003°32'0 0.1
2017-Aug-17 07:00N 58°37' W 003°32'714.5
2017-Aug-17 06:30N 58°44' W 003°30'917.6
2017-Aug-17 06:00N 58°52' W 003°28'714.3
2017-Aug-17 05:30N 58°57' W 003°18'0 0.9
2017-Aug-17 04:58N 58°58' W 003°18'0 0.0
2017-Aug-17 04:28N 58°58' W 003°18'0 0.0
2017-Aug-17 03:58N 58°58' W 003°18'0 0.0
2017-Aug-17 03:28N 58°58' W 003°18'0 0.0
2017-Aug-17 02:55N 58°58' W 003°18'0 0.0
2017-Aug-17 02:28N 58°58' W 003°18'0 0.0
2017-Aug-17 01:58N 58°58' W 003°18'0 0.0
2017-Aug-17 01:28N 58°58' W 003°18'0 0.0
2017-Aug-17 00:55N 58°58' W 003°18'0 0.0
2017-Aug-17 00:25N 58°58' W 003°18'0 0.0
2017-Aug-16 23:55N 58°58' W 003°18'0 0.0
2017-Aug-16 23:25N 58°58' W 003°18'0 0.0
2017-Aug-16 22:58N 58°58' W 003°18'0 0.0
2017-Aug-16 22:25N 58°58' W 003°18'0 0.0
2017-Aug-16 21:58N 58°58' W 003°18'0 0.0
2017-Aug-16 21:25N 58°58' W 003°18'0 0.0
2017-Aug-16 20:58N 58°58' W 003°18'0 0.0
2017-Aug-16 20:28N 58°58' W 003°18'0 0.0
2017-Aug-16 19:55N 58°58' W 003°18'0 0.0
2017-Aug-16 19:29N 58°58' W 003°18'4 8.9
2017-Aug-16 19:00N 58°56' W 003°25'918.0
2017-Aug-16 18:30N 58°47' W 003°28'918.1
2017-Aug-16 18:00N 58°38' W 003°31'1 2.9
2017-Aug-16 17:31N 58°37' W 003°32'3 6.3
2017-Aug-16 17:00N 58°40' W 003°31'816.9
2017-Aug-16 16:30N 58°48' W 003°29'817.0
2017-Aug-16 16:00N 58°56' W 003°24'4 7.7
2017-Aug-16 15:30N 58°58' W 003°18'0 0.0
2017-Aug-16 15:00N 58°58' W 003°18'0 0.0
2017-Aug-16 14:30N 58°58' W 003°18'0 0.0
2017-Aug-16 14:00N 58°58' W 003°18'1 1.4
2017-Aug-16 13:30N 58°57' W 003°17'815.2
2017-Aug-16 13:00N 58°52' W 003°28'918.0
2017-Aug-16 12:30N 58°43' W 003°30'612.8
2017-Aug-16 12:00N 58°37' W 003°32'0 0.0
2017-Aug-16 11:30N 58°37' W 003°32'612.5
2017-Aug-16 11:00N 58°43' W 003°31'917.3
2017-Aug-16 10:30N 58°51' W 003°28'815.2
2017-Aug-16 10:00N 58°57' W 003°18'1 2.0
2017-Aug-16 09:30N 58°58' W 003°18'1 2.0
2017-Aug-16 09:00N 58°57' W 003°18'714.9
2017-Aug-16 08:30N 58°52' W 003°28'918.0
2017-Aug-16 08:00N 58°43' W 003°30'612.2
2017-Aug-16 07:30N 58°37' W 003°32'0 0.0
2017-Aug-16 07:00N 58°37' W 003°32'613.1
2017-Aug-16 06:30N 58°43' W 003°30'917.3
2017-Aug-16 06:00N 58°52' W 003°28'815.7
2017-Aug-16 05:30N 58°57' W 003°17'1 1.5
2017-Aug-16 05:00N 58°58' W 003°18'0 0.0
2017-Aug-16 04:30N 58°58' W 003°18'0 0.0
2017-Aug-16 03:58N 58°58' W 003°18'0 0.0
2017-Aug-16 03:28N 58°58' W 003°18'0 0.0
2017-Aug-16 02:58N 58°58' W 003°18'0 0.0
2017-Aug-16 02:28N 58°58' W 003°18'0 0.0
2017-Aug-16 01:58N 58°58' W 003°18'0 0.0
2017-Aug-16 01:28N 58°58' W 003°18'0 0.0
2017-Aug-16 00:58N 58°58' W 003°18'0 0.0
2017-Aug-16 00:28N 58°58' W 003°18'0 0.0
2017-Aug-15 23:58N 58°58' W 003°18'0 0.0
2017-Aug-15 23:28N 58°58' W 003°18'0 0.0
2017-Aug-15 22:55N 58°58' W 003°18'0 0.0
2017-Aug-15 22:28N 58°58' W 003°18'0 0.0
2017-Aug-15 21:58N 58°58' W 003°18'0 0.0
2017-Aug-15 21:28N 58°58' W 003°18'0 0.0
2017-Aug-15 20:55N 58°58' W 003°18'0 0.0
2017-Aug-15 20:28N 58°58' W 003°18'0 0.0
2017-Aug-15 19:58N 58°58' W 003°18'0 0.0
2017-Aug-15 19:30N 58°58' W 003°18'4 8.5
2017-Aug-15 19:00N 58°56' W 003°25'917.7
2017-Aug-15 18:30N 58°47' W 003°29'917.3
2017-Aug-15 18:00N 58°39' W 003°31'2 3.0
2017-Aug-15 17:19N 58°37' W 003°32'3 8.4
2017-Aug-15 16:59N 58°39' W 003°31'917.9
2017-Aug-15 16:30N 58°48' W 003°29'917.0
2017-Aug-15 16:00N 58°56' W 003°25'4 7.9
2017-Aug-15 15:30N 58°58' W 003°18'0 0.0
2017-Aug-15 15:00N 58°58' W 003°18'0 0.0
2017-Aug-15 14:30N 58°58' W 003°18'0 0.0
2017-Aug-15 14:00N 58°58' W 003°18'1 2.5
2017-Aug-15 13:31N 58°57' W 003°19'815.4
2017-Aug-15 13:00N 58°50' W 003°28'917.2
2017-Aug-15 12:30N 58°42' W 003°30'510.6
2017-Aug-15 12:00N 58°37' W 003°32'0 0.0
2017-Aug-15 11:30N 58°37' W 003°32'714.3
2017-Aug-15 11:00N 58°44' W 003°29'917.0
2017-Aug-15 10:30N 58°52' W 003°27'714.5
2017-Aug-15 10:00N 58°57' W 003°17'1 1.4
2017-Aug-15 09:30N 58°58' W 003°18'1 1.9
2017-Aug-15 09:00N 58°57' W 003°17'815.1
2017-Aug-15 08:30N 58°52' W 003°28'917.9
2017-Aug-15 08:00N 58°43' W 003°30'6 8.9
2017-Aug-15 07:18N 58°37' W 003°32'0 0.3
2017-Aug-15 06:56N 58°37' W 003°33'716.6
2017-Aug-15 06:30N 58°44' W 003°30'917.4
2017-Aug-15 06:00N 58°52' W 003°28'714.7
2017-Aug-15 05:30N 58°57' W 003°18'0 1.0
2017-Aug-15 05:00N 58°58' W 003°18'0 0.0
2017-Aug-15 04:30N 58°58' W 003°18'0 0.0
2017-Aug-15 04:00N 58°58' W 003°18'0 0.0
2017-Aug-15 03:30N 58°58' W 003°18'0 0.0
2017-Aug-15 03:00N 58°58' W 003°18'0 0.0
2017-Aug-15 02:30N 58°58' W 003°18'0 0.0
2017-Aug-15 02:00N 58°58' W 003°18'0 0.0
2017-Aug-15 01:30N 58°58' W 003°18'0 0.0
2017-Aug-15 01:00N 58°58' W 003°18'0 0.0
2017-Aug-15 00:30N 58°58' W 003°18'0 0.0
2017-Aug-15 00:00N 58°58' W 003°18'0 0.0
2017-Aug-14 23:30N 58°58' W 003°18'0 0.0
2017-Aug-14 23:00N 58°58' W 003°18'0 0.0
2017-Aug-14 22:30N 58°58' W 003°18'0 0.0
2017-Aug-14 22:00N 58°58' W 003°18'0 0.0
2017-Aug-14 21:30N 58°58' W 003°18'0 0.0
2017-Aug-14 21:00N 58°58' W 003°18'0 0.0
2017-Aug-14 20:30N 58°58' W 003°18'0 0.0
2017-Aug-14 20:00N 58°58' W 003°18'0 0.1
2017-Aug-14 19:30N 58°58' W 003°18'612.8
2017-Aug-14 19:00N 58°54' W 003°27'918.6
2017-Aug-14 18:30N 58°44' W 003°29'815.7
2017-Aug-14 18:00N 58°37' W 003°32'0 0.0
2017-Aug-14 17:30N 58°37' W 003°32'4 7.7
2017-Aug-14 17:00N 58°40' W 003°31'917.1
2017-Aug-14 16:30N 58°49' W 003°28'815.9
2017-Aug-14 16:00N 58°56' W 003°23'3 6.2
2017-Aug-14 15:30N 58°58' W 003°18'0 0.0
2017-Aug-14 14:58N 58°58' W 003°18'0 0.0
2017-Aug-14 14:28N 58°58' W 003°18'0 0.0
2017-Aug-14 13:58N 58°58' W 003°18'4 8.0
2017-Aug-14 13:30N 58°56' W 003°24'816.5
2017-Aug-14 12:59N 58°48' W 003°28'12 9.1
2017-Aug-14 11:42N 58°37' W 003°32'313.7
2017-Aug-14 11:29N 58°39' W 003°31'817.1
2017-Aug-14 11:00N 58°47' W 003°29'917.4
2017-Aug-14 10:31N 58°56' W 003°25'4 8.9
2017-Aug-14 10:00N 58°58' W 003°18'0 0.0
2017-Aug-14 09:30N 58°58' W 003°18'4 7.7
2017-Aug-14 09:00N 58°56' W 003°25'817.1
2017-Aug-14 08:30N 58°48' W 003°28'817.0
2017-Aug-14 08:00N 58°40' W 003°31'3 5.9
2017-Aug-14 07:30N 58°37' W 003°32'0 0.2
2017-Aug-14 07:00N 58°37' W 003°32'917.4
2017-Aug-14 06:30N 58°45' W 003°30'816.1
2017-Aug-14 06:00N 58°53' W 003°28'713.6
2017-Aug-14 05:30N 58°58' W 003°18'0 0.3
2017-Aug-14 05:00N 58°58' W 003°18'0 0.0
2017-Aug-14 04:30N 58°58' W 003°18'0 0.0
2017-Aug-14 04:00N 58°58' W 003°18'0 0.0
2017-Aug-14 03:30N 58°58' W 003°18'0 0.0
2017-Aug-14 03:00N 58°58' W 003°18'0 0.0
2017-Aug-14 02:30N 58°58' W 003°18'0 0.0
2017-Aug-14 01:54N 58°58' W 003°18'0 0.0
2017-Aug-14 01:06N 58°58' W 003°18'0 0.0
2017-Aug-14 00:45N 58°58' W 003°18'0 0.0
2017-Aug-14 00:27N 58°58' W 003°18'0 0.0
2017-Aug-13 23:54N 58°58' W 003°18'0 0.0
2017-Aug-13 23:24N 58°58' W 003°18'0 0.0
2017-Aug-13 23:00N 58°58' W 003°18'0 0.0
2017-Aug-13 22:29N 58°58' W 003°18'0 0.0
2017-Aug-13 22:00N 58°58' W 003°18'0 0.0
2017-Aug-13 21:30N 58°58' W 003°18'0 0.0
2017-Aug-13 21:00N 58°58' W 003°18'0 0.0
2017-Aug-13 20:30N 58°58' W 003°18'0 0.0
2017-Aug-13 20:00N 58°58' W 003°18'0 0.0
2017-Aug-13 19:30N 58°58' W 003°18'5 9.3
2017-Aug-13 19:00N 58°55' W 003°25'917.3
2017-Aug-13 18:31N 58°47' W 003°29'916.9
2017-Aug-13 18:00N 58°38' W 003°31'2 3.9
2017-Aug-13 17:30N 58°37' W 003°32'2 4.0
2017-Aug-13 16:59N 58°39' W 003°31'918.3
2017-Aug-13 16:30N 58°47' W 003°28'917.2
2017-Aug-13 16:00N 58°56' W 003°25'4 8.8
2017-Aug-13 15:30N 58°58' W 003°18'0 0.0
2017-Aug-13 15:00N 58°58' W 003°18'0 0.0
2017-Aug-13 14:30N 58°58' W 003°18'1 2.4
2017-Aug-13 14:00N 58°57' W 003°19'815.0
2017-Aug-13 13:30N 58°51' W 003°28'816.4
2017-Aug-13 13:00N 58°43' W 003°30'612.6
2017-Aug-13 12:30N 58°37' W 003°32'0 0.0
2017-Aug-13 12:01N 58°37' W 003°32'713.3
2017-Aug-13 11:30N 58°43' W 003°30'917.7
2017-Aug-13 11:00N 58°52' W 003°28'714.1
2017-Aug-13 10:30N 58°57' W 003°18'1 2.0
2017-Aug-13 10:00N 58°58' W 003°18'0 0.0
2017-Aug-13 09:30N 58°58' W 003°18'510.9
2017-Aug-13 09:00N 58°55' W 003°26'917.2
2017-Aug-13 08:30N 58°46' W 003°30'816.9
2017-Aug-13 08:01N 58°38' W 003°31'1 2.6
2017-Aug-13 07:30N 58°37' W 003°32'3 5.1
2017-Aug-13 07:00N 58°39' W 003°31'917.4
2017-Aug-13 06:30N 58°48' W 003°29'917.0
2017-Aug-13 06:00N 58°56' W 003°25'4 8.4
2017-Aug-13 05:30N 58°58' W 003°18'0 0.0
2017-Aug-13 05:00N 58°58' W 003°18'0 0.0
2017-Aug-13 04:30N 58°58' W 003°18'0 0.0
2017-Aug-13 04:00N 58°58' W 003°18'0 0.0
2017-Aug-13 03:30N 58°58' W 003°18'0 0.0
2017-Aug-13 03:00N 58°58' W 003°18'0 0.0
2017-Aug-13 02:30N 58°58' W 003°18'0 0.0
2017-Aug-13 02:00N 58°58' W 003°18'0 0.0
2017-Aug-13 01:30N 58°58' W 003°18'0 0.0
2017-Aug-13 01:00N 58°58' W 003°18'0 0.0
2017-Aug-13 00:30N 58°58' W 003°18'0 0.0
2017-Aug-13 00:00N 58°58' W 003°18'0 0.0
2017-Aug-12 23:30N 58°58' W 003°18'0 0.0
2017-Aug-12 23:00N 58°58' W 003°18'0 0.0
2017-Aug-12 22:30N 58°58' W 003°18'0 0.0
2017-Aug-12 22:00N 58°58' W 003°18'0 0.0
2017-Aug-12 21:24N 58°58' W 003°18'0 0.0
2017-Aug-12 21:00N 58°58' W 003°18'0 0.0
2017-Aug-12 20:30N 58°58' W 003°18'5 9.0
2017-Aug-12 20:00N 58°56' W 003°25'917.0
2017-Aug-12 19:30N 58°48' W 003°31'816.6
2017-Aug-12 19:00N 58°39' W 003°32'3 5.1
2017-Aug-12 18:30N 58°37' W 003°32'3 6.3
2017-Aug-12 18:00N 58°40' W 003°31'918.0
2017-Aug-12 17:30N 58°49' W 003°28'816.6
2017-Aug-12 17:00N 58°56' W 003°23'3 5.9
2017-Aug-12 16:28N 58°58' W 003°18'0 0.0
2017-Aug-12 15:58N 58°58' W 003°18'0 0.0
2017-Aug-12 15:28N 58°58' W 003°18'0 0.0
2017-Aug-12 14:58N 58°58' W 003°18'0 0.0
2017-Aug-12 14:22N 58°58' W 003°18'1 1.8
2017-Aug-12 14:00N 58°57' W 003°17'713.8
2017-Aug-12 13:30N 58°53' W 003°27'816.3
2017-Aug-12 13:00N 58°45' W 003°30'816.3
2017-Aug-12 12:30N 58°37' W 003°32'0 0.3
2017-Aug-12 12:00N 58°37' W 003°32'1 2.2
2017-Aug-12 11:30N 58°38' W 003°31'917.6
2017-Aug-12 11:00N 58°46' W 003°31'918.2
2017-Aug-12 10:30N 58°55' W 003°26'510.0
2017-Aug-12 10:00N 58°58' W 003°18'0 0.0
2017-Aug-12 09:30N 58°58' W 003°18'3 6.8
2017-Aug-12 09:00N 58°56' W 003°24'816.0
2017-Aug-12 08:30N 58°49' W 003°30'1116.2
2017-Aug-12 07:51N 58°38' W 003°31'2 5.1
2017-Aug-12 07:30N 58°37' W 003°32'0 0.3
2017-Aug-12 07:00N 58°37' W 003°32'816.5
2017-Aug-12 06:30N 58°45' W 003°30'917.1
2017-Aug-12 06:00N 58°53' W 003°28'713.3
2017-Aug-12 05:30N 58°57' W 003°18'0 0.6
2017-Aug-12 05:00N 58°58' W 003°18'0 0.0
2017-Aug-12 04:30N 58°58' W 003°18'0 0.0
2017-Aug-12 04:00N 58°58' W 003°18'0 0.0
2017-Aug-12 03:30N 58°58' W 003°18'0 0.0
2017-Aug-12 03:00N 58°58' W 003°18'0 0.0
2017-Aug-12 02:30N 58°58' W 003°18'0 0.0
2017-Aug-12 02:00N 58°58' W 003°18'0 0.0
2017-Aug-12 01:30N 58°58' W 003°18'0 0.0
2017-Aug-12 01:00N 58°58' W 003°18'0 0.0
2017-Aug-12 00:30N 58°58' W 003°18'0 0.0
2017-Aug-12 00:00N 58°58' W 003°18'0 0.0
2017-Aug-11 23:30N 58°58' W 003°18'0 0.0
2017-Aug-11 22:57N 58°58' W 003°18'0 0.0
2017-Aug-11 22:30N 58°58' W 003°18'0 0.0
2017-Aug-11 21:57N 58°58' W 003°18'0 0.0
2017-Aug-11 21:27N 58°58' W 003°18'0 0.0
2017-Aug-11 20:57N 58°58' W 003°18'0 0.0
2017-Aug-11 20:30N 58°58' W 003°18'0 0.0
2017-Aug-11 20:00N 58°58' W 003°18'1 1.5
2017-Aug-11 19:30N 58°57' W 003°17'714.9
2017-Aug-11 19:00N 58°52' W 003°28'917.3
2017-Aug-11 18:30N 58°43' W 003°30'713.9
2017-Aug-11 18:00N 58°37' W 003°32'0 0.0
2017-Aug-11 17:23N 58°37' W 003°32'411.6
2017-Aug-11 17:00N 58°41' W 003°31'816.8
2017-Aug-11 16:31N 58°49' W 003°30'815.5
2017-Aug-11 16:00N 58°56' W 003°24'3 6.7
2017-Aug-11 15:30N 58°58' W 003°18'0 0.0
2017-Aug-11 15:00N 58°58' W 003°18'0 0.0
2017-Aug-11 14:29N 58°58' W 003°18'6 6.0
2017-Aug-11 13:30N 58°54' W 003°27'917.3
2017-Aug-11 13:00N 58°46' W 003°30'917.2
2017-Aug-11 12:30N 58°37' W 003°32'1 1.2
2017-Aug-11 12:00N 58°37' W 003°32'2 4.5
2017-Aug-11 11:30N 58°39' W 003°31'917.0
2017-Aug-11 11:00N 58°47' W 003°30'816.9
2017-Aug-11 10:30N 58°55' W 003°25'5 9.3
2017-Aug-11 10:00N 58°58' W 003°18'0 0.1
2017-Aug-11 09:30N 58°58' W 003°18'2 4.4
2017-Aug-11 09:00N 58°57' W 003°22'815.3
2017-Aug-11 08:30N 58°50' W 003°28'917.1
2017-Aug-11 08:00N 58°41' W 003°30'5 8.6
2017-Aug-11 07:26N 58°37' W 003°32'2 4.1
2017-Aug-11 06:55N 58°39' W 003°31'717.0
2017-Aug-11 06:30N 58°46' W 003°30'816.4
2017-Aug-11 06:00N 58°54' W 003°27'612.3
2017-Aug-11 05:31N 58°58' W 003°18'0 0.3
2017-Aug-11 04:58N 58°58' W 003°18'0 0.0
2017-Aug-11 04:28N 58°58' W 003°18'0 0.0
2017-Aug-11 03:58N 58°58' W 003°18'0 0.0
2017-Aug-11 03:28N 58°58' W 003°18'0 0.0
2017-Aug-11 02:58N 58°58' W 003°18'0 0.0
2017-Aug-11 02:28N 58°58' W 003°18'0 0.0
2017-Aug-11 01:58N 58°58' W 003°18'0 0.0
2017-Aug-11 01:28N 58°58' W 003°18'0 0.0
2017-Aug-11 00:58N 58°58' W 003°18'0 0.0
2017-Aug-11 00:28N 58°58' W 003°18'0 0.0
2017-Aug-10 23:58N 58°58' W 003°18'0 0.0
2017-Aug-10 23:28N 58°58' W 003°18'0 0.0
2017-Aug-10 22:58N 58°58' W 003°18'0 0.0
2017-Aug-10 22:28N 58°58' W 003°18'0 0.0
2017-Aug-10 21:58N 58°58' W 003°18'0 0.0
2017-Aug-10 21:28N 58°58' W 003°18'0 0.0
2017-Aug-10 20:58N 58°58' W 003°18'  
Track history (hours):
 
Tides and Currents Weather Stations Pressure Air Temp Water Temp Dewpoint Dewpoint Depression Visibility Wind Speed Wind Dir Waves Ship Positions

Hamnavoe

Operator: NorthLink Orkey & Shetland Ferries Ltd

Last reported at 2017-Aug-20 20:29 UTC. Time now 2017-Aug-20 20:45 UTC.
Position N 58°58' W 003°18'.

Length 112 m; draft 4.2 m.

Type: Ship. MMSI: 235449000.

Date/timePositionNaut miles runAvg speedWind from/ knotsBaromVisibWave heightAir tempDewpointWater temp
2017-Aug-20 20:29N 58°58' W 003°18'0 0.0
2017-Aug-20 19:59N 58°58' W 003°18'0 0.0
2017-Aug-20 19:30N 58°58' W 003°18'611.3
2017-Aug-20 19:00N 58°54' W 003°26'816.0
2017-Aug-20 18:30N 58°47' W 003°30'8 5.7
2017-Aug-20 17:02N 58°38' W 003°31'118.0
2017-Aug-20 16:59N 58°39' W 003°31'817.5
2017-Aug-20 16:30N 58°47' W 003°29'917.6
2017-Aug-20 16:00N 58°56' W 003°25'4 7.5
2017-Aug-20 15:27N 58°58' W 003°18'0 0.0
2017-Aug-20 14:57N 58°58' W 003°18'0 0.0
2017-Aug-20 14:27N 58°58' W 003°18'0 0.0
2017-Aug-20 13:57N 58°58' W 003°18'0 0.0
2017-Aug-20 13:27N 58°58' W 003°18'0 0.0
2017-Aug-20 12:57N 58°58' W 003°18'0 0.1
2017-Aug-20 12:30N 58°58' W 003°18'611.3
2017-Aug-20 12:00N 58°54' W 003°26'917.4
2017-Aug-20 11:30N 58°46' W 003°30'816.7
2017-Aug-20 11:00N 58°38' W 003°31'1 1.7
2017-Aug-20 10:25N 58°37' W 003°32'0 0.0
2017-Aug-20 10:00N 58°37' W 003°32'0 0.0
2017-Aug-20 09:30N 58°37' W 003°32'714.3
2017-Aug-20 09:00N 58°44' W 003°30'918.2
2017-Aug-20 08:30N 58°53' W 003°28'714.1
2017-Aug-20 08:00N 58°57' W 003°18'1 1.0
2017-Aug-20 07:27N 58°58' W 003°18'0 0.0
2017-Aug-20 06:57N 58°58' W 003°18'0 0.0
2017-Aug-20 06:27N 58°58' W 003°18'0 0.0
2017-Aug-20 05:57N 58°58' W 003°18'0 0.0
2017-Aug-20 05:27N 58°58' W 003°18'0 0.0
2017-Aug-20 04:57N 58°58' W 003°18'0 0.0
2017-Aug-20 04:27N 58°58' W 003°18'0 0.0
2017-Aug-20 03:57N 58°58' W 003°18'0 0.0
2017-Aug-20 03:27N 58°58' W 003°18'0 0.0
2017-Aug-20 02:57N 58°58' W 003°18'0 0.0
2017-Aug-20 02:27N 58°58' W 003°18'0 0.0
2017-Aug-20 01:57N 58°58' W 003°18'0 0.0
2017-Aug-20 01:27N 58°58' W 003°18'0 0.0
2017-Aug-20 00:57N 58°58' W 003°18'0 0.0
2017-Aug-20 00:15N 58°58' W 003°18'0 0.0
2017-Aug-19 23:03N 58°58' W 003°18'0 0.0
2017-Aug-19 22:57N 58°58' W 003°18'0 0.0
2017-Aug-19 22:21N 58°58' W 003°18'0 0.0
2017-Aug-19 21:57N 58°58' W 003°18'0 0.0
2017-Aug-19 21:30N 58°58' W 003°18'0 0.0
2017-Aug-19 20:57N 58°58' W 003°18'0 0.0
2017-Aug-19 20:27N 58°58' W 003°18'0 0.0
2017-Aug-19 19:59N 58°58' W 003°18'0 0.1
2017-Aug-19 19:30N 58°58' W 003°18'612.8
2017-Aug-19 19:00N 58°54' W 003°27'815.8
2017-Aug-19 18:30N 58°46' W 003°29'8 5.7
2017-Aug-19 17:07N 58°38' W 003°31'217.7
2017-Aug-19 17:00N 58°40' W 003°31'917.6
2017-Aug-19 16:30N 58°49' W 003°29'816.8
2017-Aug-19 16:00N 58°56' W 003°23'3 6.3
2017-Aug-19 15:30N 58°58' W 003°18'0 0.0
2017-Aug-19 15:00N 58°58' W 003°18'1 1.0
2017-Aug-19 14:01N 58°57' W 003°18'714.8
2017-Aug-19 13:30N 58°52' W 003°28'917.2
2017-Aug-19 13:00N 58°43' W 003°29'613.0
2017-Aug-19 12:30N 58°37' W 003°32'0 0.0
2017-Aug-19 12:00N 58°37' W 003°32'5 9.8
2017-Aug-19 11:30N 58°41' W 003°30'917.4
2017-Aug-19 11:00N 58°50' W 003°28'714.9
2017-Aug-19 10:30N 58°57' W 003°22'2 4.5
2017-Aug-19 10:00N 58°58' W 003°18'0 0.0
2017-Aug-19 09:30N 58°58' W 003°18'2 3.2
2017-Aug-19 09:00N 58°57' W 003°20'815.2
2017-Aug-19 08:30N 58°51' W 003°29'817.0
2017-Aug-19 08:00N 58°42' W 003°30'611.0
2017-Aug-19 07:30N 58°37' W 003°32'0 0.3
2017-Aug-19 07:00N 58°37' W 003°32'817.1
2017-Aug-19 06:30N 58°45' W 003°30'918.2
2017-Aug-19 06:00N 58°54' W 003°27'611.9
2017-Aug-19 05:31N 58°58' W 003°18'0 0.4
2017-Aug-19 04:55N 58°58' W 003°18'0 0.0
2017-Aug-19 03:07N 58°58' W 003°18'0 0.0
2017-Aug-19 01:56N 58°58' W 003°18'0 0.0
2017-Aug-19 00:41N 58°58' W 003°18'0 0.0
2017-Aug-19 00:26N 58°58' W 003°18'0 0.0
2017-Aug-18 23:31N 58°58' W 003°18'0 0.0
2017-Aug-18 23:19N 58°58' W 003°18'0 0.0
2017-Aug-18 22:57N 58°58' W 003°18'0 0.0
2017-Aug-18 22:15N 58°58' W 003°18'0 0.0
2017-Aug-18 21:51N 58°58' W 003°18'0 0.0
2017-Aug-18 21:17N 58°58' W 003°18'0 0.0
2017-Aug-18 20:57N 58°58' W 003°18'0 0.0
2017-Aug-18 20:27N 58°58' W 003°18'0 0.0
2017-Aug-18 19:57N 58°58' W 003°18'0 0.4
2017-Aug-18 19:30N 58°58' W 003°18'713.7
2017-Aug-18 19:00N 58°53' W 003°27'1016.8
2017-Aug-18 18:23N 58°43' W 003°31'6 5.5
2017-Aug-18 17:17N 58°37' W 003°32'3 8.9
2017-Aug-18 16:55N 58°40' W 003°31'717.9
2017-Aug-18 16:30N 58°47' W 003°29'918.4
2017-Aug-18 16:00N 58°56' W 003°25'4 7.8
2017-Aug-18 15:29N 58°58' W 003°18'0 0.0
2017-Aug-18 14:59N 58°58' W 003°18'0 0.0
2017-Aug-18 13:59N 58°58' W 003°18'1 2.1
2017-Aug-18 13:30N 58°57' W 003°18'815.2
2017-Aug-18 13:00N 58°51' W 003°28'918.0
2017-Aug-18 12:30N 58°42' W 003°30'6 7.8
2017-Aug-18 11:45N 58°37' W 003°32'0 0.5
2017-Aug-18 11:28N 58°37' W 003°32'716.0
2017-Aug-18 11:00N 58°44' W 003°29'917.4
2017-Aug-18 10:30N 58°52' W 003°28'714.5
2017-Aug-18 10:00N 58°57' W 003°18'0 0.9
2017-Aug-18 09:30N 58°58' W 003°18'1 2.0
2017-Aug-18 09:00N 58°57' W 003°17'714.5
2017-Aug-18 08:30N 58°52' W 003°28'918.0
2017-Aug-18 08:00N 58°43' W 003°30'6 9.5
2017-Aug-18 07:19N 58°37' W 003°32'0 0.3
2017-Aug-18 06:58N 58°37' W 003°32'816.3
2017-Aug-18 06:30N 58°44' W 003°30'918.0
2017-Aug-18 06:00N 58°53' W 003°28'713.7
2017-Aug-18 05:30N 58°57' W 003°18'0 0.6
2017-Aug-18 04:56N 58°58' W 003°18'0 0.0
2017-Aug-18 04:26N 58°58' W 003°18'0 0.0
2017-Aug-18 03:56N 58°58' W 003°18'0 0.0
2017-Aug-18 03:26N 58°58' W 003°18'0 0.0
2017-Aug-18 02:56N 58°58' W 003°18'0 0.0
2017-Aug-18 02:26N 58°58' W 003°18'0 0.0
2017-Aug-18 01:56N 58°58' W 003°18'0 0.0
2017-Aug-18 01:26N 58°58' W 003°18'0 0.0
2017-Aug-18 00:56N 58°58' W 003°18'0 0.0
2017-Aug-18 00:26N 58°58' W 003°18'0 0.0
2017-Aug-17 23:56N 58°58' W 003°18'0 0.0
2017-Aug-17 23:26N 58°58' W 003°18'0 0.0
2017-Aug-17 22:56N 58°58' W 003°18'0 0.0
2017-Aug-17 22:26N 58°58' W 003°18'0 0.0
2017-Aug-17 21:56N 58°58' W 003°18'0 0.0
2017-Aug-17 21:26N 58°58' W 003°18'0 0.0
2017-Aug-17 20:56N 58°58' W 003°18'0 0.0
2017-Aug-17 20:20N 58°58' W 003°18'0 0.0
2017-Aug-17 19:56N 58°58' W 003°18'1 3.3
2017-Aug-17 19:30N 58°57' W 003°19'815.4
2017-Aug-17 19:00N 58°50' W 003°28'10 4.9
2017-Aug-17 16:59N 58°40' W 003°30'817.7
2017-Aug-17 16:30N 58°49' W 003°28'816.6
2017-Aug-17 16:00N 58°57' W 003°22'3 5.2
2017-Aug-17 15:30N 58°58' W 003°18'0 0.0
2017-Aug-17 15:00N 58°58' W 003°18'0 0.0
2017-Aug-17 14:30N 58°58' W 003°18'0 0.0
2017-Aug-17 14:00N 58°58' W 003°18'1 1.2
2017-Aug-17 13:30N 58°57' W 003°17'714.9
2017-Aug-17 13:00N 58°52' W 003°28'918.3
2017-Aug-17 12:30N 58°43' W 003°28'7 9.3
2017-Aug-17 11:48N 58°37' W 003°32'0 0.3
2017-Aug-17 11:29N 58°37' W 003°32'715.4
2017-Aug-17 11:00N 58°44' W 003°30'917.2
2017-Aug-17 10:30N 58°52' W 003°28'714.6
2017-Aug-17 10:01N 58°57' W 003°18'0 0.9
2017-Aug-17 09:30N 58°58' W 003°18'1 2.0
2017-Aug-17 09:00N 58°57' W 003°18'714.8
2017-Aug-17 08:30N 58°52' W 003°28'918.5
2017-Aug-17 08:00N 58°42' W 003°30'611.8
2017-Aug-17 07:30N 58°37' W 003°32'0 0.1
2017-Aug-17 07:00N 58°37' W 003°32'714.5
2017-Aug-17 06:30N 58°44' W 003°30'917.6
2017-Aug-17 06:00N 58°52' W 003°28'714.3
2017-Aug-17 05:30N 58°57' W 003°18'0 0.9
2017-Aug-17 04:58N 58°58' W 003°18'0 0.0
2017-Aug-17 04:28N 58°58' W 003°18'0 0.0
2017-Aug-17 03:58N 58°58' W 003°18'0 0.0
2017-Aug-17 03:28N 58°58' W 003°18'0 0.0
2017-Aug-17 02:55N 58°58' W 003°18'0 0.0
2017-Aug-17 02:28N 58°58' W 003°18'0 0.0
2017-Aug-17 01:58N 58°58' W 003°18'0 0.0
2017-Aug-17 01:28N 58°58' W 003°18'0 0.0
2017-Aug-17 00:55N 58°58' W 003°18'0 0.0
2017-Aug-17 00:25N 58°58' W 003°18'0 0.0
2017-Aug-16 23:55N 58°58' W 003°18'0 0.0
2017-Aug-16 23:25N 58°58' W 003°18'0 0.0
2017-Aug-16 22:58N 58°58' W 003°18'0 0.0
2017-Aug-16 22:25N 58°58' W 003°18'0 0.0
2017-Aug-16 21:58N 58°58' W 003°18'0 0.0
2017-Aug-16 21:25N 58°58' W 003°18'0 0.0
2017-Aug-16 20:58N 58°58' W 003°18'0 0.0
2017-Aug-16 20:28N 58°58' W 003°18'0 0.0
2017-Aug-16 19:55N 58°58' W 003°18'0 0.0
2017-Aug-16 19:29N 58°58' W 003°18'4 8.9
2017-Aug-16 19:00N 58°56' W 003°25'918.0
2017-Aug-16 18:30N 58°47' W 003°28'918.1
2017-Aug-16 18:00N 58°38' W 003°31'1 2.9
2017-Aug-16 17:31N 58°37' W 003°32'3 6.3
2017-Aug-16 17:00N 58°40' W 003°31'816.9
2017-Aug-16 16:30N 58°48' W 003°29'817.0
2017-Aug-16 16:00N 58°56' W 003°24'4 7.7
2017-Aug-16 15:30N 58°58' W 003°18'0 0.0
2017-Aug-16 15:00N 58°58' W 003°18'0 0.0
2017-Aug-16 14:30N 58°58' W 003°18'0 0.0
2017-Aug-16 14:00N 58°58' W 003°18'1 1.4
2017-Aug-16 13:30N 58°57' W 003°17'815.2
2017-Aug-16 13:00N 58°52' W 003°28'918.0
2017-Aug-16 12:30N 58°43' W 003°30'612.8
2017-Aug-16 12:00N 58°37' W 003°32'0 0.0
2017-Aug-16 11:30N 58°37' W 003°32'612.5
2017-Aug-16 11:00N 58°43' W 003°31'917.3
2017-Aug-16 10:30N 58°51' W 003°28'815.2
2017-Aug-16 10:00N 58°57' W 003°18'1 2.0
2017-Aug-16 09:30N 58°58' W 003°18'1 2.0
2017-Aug-16 09:00N 58°57' W 003°18'714.9
2017-Aug-16 08:30N 58°52' W 003°28'918.0
2017-Aug-16 08:00N 58°43' W 003°30'612.2
2017-Aug-16 07:30N 58°37' W 003°32'0 0.0
2017-Aug-16 07:00N 58°37' W 003°32'613.1
2017-Aug-16 06:30N 58°43' W 003°30'917.3
2017-Aug-16 06:00N 58°52' W 003°28'815.7
2017-Aug-16 05:30N 58°57' W 003°17'1 1.5
2017-Aug-16 05:00N 58°58' W 003°18'0 0.0
2017-Aug-16 04:30N 58°58' W 003°18'0 0.0
2017-Aug-16 03:58N 58°58' W 003°18'0 0.0
2017-Aug-16 03:28N 58°58' W 003°18'0 0.0
2017-Aug-16 02:58N 58°58' W 003°18'0 0.0
2017-Aug-16 02:28N 58°58' W 003°18'0 0.0
2017-Aug-16 01:58N 58°58' W 003°18'0 0.0
2017-Aug-16 01:28N 58°58' W 003°18'0 0.0
2017-Aug-16 00:58N 58°58' W 003°18'0 0.0
2017-Aug-16 00:28N 58°58' W 003°18'0 0.0
2017-Aug-15 23:58N 58°58' W 003°18'0 0.0
2017-Aug-15 23:28N 58°58' W 003°18'0 0.0
2017-Aug-15 22:55N 58°58' W 003°18'0 0.0
2017-Aug-15 22:28N 58°58' W 003°18'0 0.0
2017-Aug-15 21:58N 58°58' W 003°18'0 0.0
2017-Aug-15 21:28N 58°58' W 003°18'0 0.0
2017-Aug-15 20:55N 58°58' W 003°18'0 0.0
2017-Aug-15 20:28N 58°58' W 003°18'0 0.0
2017-Aug-15 19:58N 58°58' W 003°18'0 0.0
2017-Aug-15 19:30N 58°58' W 003°18'4 8.5
2017-Aug-15 19:00N 58°56' W 003°25'917.7
2017-Aug-15 18:30N 58°47' W 003°29'917.3
2017-Aug-15 18:00N 58°39' W 003°31'2 3.0
2017-Aug-15 17:19N 58°37' W 003°32'3 8.4
2017-Aug-15 16:59N 58°39' W 003°31'917.9
2017-Aug-15 16:30N 58°48' W 003°29'917.0
2017-Aug-15 16:00N 58°56' W 003°25'4 7.9
2017-Aug-15 15:30N 58°58' W 003°18'0 0.0
2017-Aug-15 15:00N 58°58' W 003°18'0 0.0
2017-Aug-15 14:30N 58°58' W 003°18'0 0.0
2017-Aug-15 14:00N 58°58' W 003°18'1 2.5
2017-Aug-15 13:31N 58°57' W 003°19'815.4
2017-Aug-15 13:00N 58°50' W 003°28'917.2
2017-Aug-15 12:30N 58°42' W 003°30'510.6
2017-Aug-15 12:00N 58°37' W 003°32'0 0.0
2017-Aug-15 11:30N 58°37' W 003°32'714.3
2017-Aug-15 11:00N 58°44' W 003°29'917.0
2017-Aug-15 10:30N 58°52' W 003°27'714.5
2017-Aug-15 10:00N 58°57' W 003°17'1 1.4
2017-Aug-15 09:30N 58°58' W 003°18'1 1.9
2017-Aug-15 09:00N 58°57' W 003°17'815.1
2017-Aug-15 08:30N 58°52' W 003°28'917.9
2017-Aug-15 08:00N 58°43' W 003°30'6 8.9
2017-Aug-15 07:18N 58°37' W 003°32'0 0.3
2017-Aug-15 06:56N 58°37' W 003°33'716.6
2017-Aug-15 06:30N 58°44' W 003°30'917.4
2017-Aug-15 06:00N 58°52' W 003°28'714.7
2017-Aug-15 05:30N 58°57' W 003°18'0 1.0
2017-Aug-15 05:00N 58°58' W 003°18'0 0.0
2017-Aug-15 04:30N 58°58' W 003°18'0 0.0
2017-Aug-15 04:00N 58°58' W 003°18'0 0.0
2017-Aug-15 03:30N 58°58' W 003°18'0 0.0
2017-Aug-15 03:00N 58°58' W 003°18'0 0.0
2017-Aug-15 02:30N 58°58' W 003°18'0 0.0
2017-Aug-15 02:00N 58°58' W 003°18'0 0.0
2017-Aug-15 01:30N 58°58' W 003°18'0 0.0
2017-Aug-15 01:00N 58°58' W 003°18'0 0.0
2017-Aug-15 00:30N 58°58' W 003°18'0 0.0
2017-Aug-15 00:00N 58°58' W 003°18'0 0.0
2017-Aug-14 23:30N 58°58' W 003°18'0 0.0
2017-Aug-14 23:00N 58°58' W 003°18'0 0.0
2017-Aug-14 22:30N 58°58' W 003°18'0 0.0
2017-Aug-14 22:00N 58°58' W 003°18'0 0.0
2017-Aug-14 21:30N 58°58' W 003°18'0 0.0
2017-Aug-14 21:00N 58°58' W 003°18'0 0.0
2017-Aug-14 20:30N 58°58' W 003°18'0 0.0
2017-Aug-14 20:00N 58°58' W 003°18'0 0.1
2017-Aug-14 19:30N 58°58' W 003°18'612.8
2017-Aug-14 19:00N 58°54' W 003°27'918.6
2017-Aug-14 18:30N 58°44' W 003°29'815.7
2017-Aug-14 18:00N 58°37' W 003°32'0 0.0
2017-Aug-14 17:30N 58°37' W 003°32'4 7.7
2017-Aug-14 17:00N 58°40' W 003°31'917.1
2017-Aug-14 16:30N 58°49' W 003°28'815.9
2017-Aug-14 16:00N 58°56' W 003°23'3 6.2
2017-Aug-14 15:30N 58°58' W 003°18'0 0.0
2017-Aug-14 14:58N 58°58' W 003°18'0 0.0
2017-Aug-14 14:28N 58°58' W 003°18'0 0.0
2017-Aug-14 13:58N 58°58' W 003°18'4 8.0
2017-Aug-14 13:30N 58°56' W 003°24'816.5
2017-Aug-14 12:59N 58°48' W 003°28'12 9.1
2017-Aug-14 11:42N 58°37' W 003°32'313.7
2017-Aug-14 11:29N 58°39' W 003°31'817.1
2017-Aug-14 11:00N 58°47' W 003°29'917.4
2017-Aug-14 10:31N 58°56' W 003°25'4 8.9
2017-Aug-14 10:00N 58°58' W 003°18'0 0.0
2017-Aug-14 09:30N 58°58' W 003°18'4 7.7
2017-Aug-14 09:00N 58°56' W 003°25'817.1
2017-Aug-14 08:30N 58°48' W 003°28'817.0
2017-Aug-14 08:00N 58°40' W 003°31'3 5.9
2017-Aug-14 07:30N 58°37' W 003°32'0 0.2
2017-Aug-14 07:00N 58°37' W 003°32'917.4
2017-Aug-14 06:30N 58°45' W 003°30'816.1
2017-Aug-14 06:00N 58°53' W 003°28'713.6
2017-Aug-14 05:30N 58°58' W 003°18'0 0.3
2017-Aug-14 05:00N 58°58' W 003°18'0 0.0
2017-Aug-14 04:30N 58°58' W 003°18'0 0.0
2017-Aug-14 04:00N 58°58' W 003°18'0 0.0
2017-Aug-14 03:30N 58°58' W 003°18'0 0.0
2017-Aug-14 03:00N 58°58' W 003°18'0 0.0
2017-Aug-14 02:30N 58°58' W 003°18'0 0.0
2017-Aug-14 01:54N 58°58' W 003°18'0 0.0
2017-Aug-14 01:06N 58°58' W 003°18'0 0.0
2017-Aug-14 00:45N 58°58' W 003°18'0 0.0
2017-Aug-14 00:27N 58°58' W 003°18'0 0.0
2017-Aug-13 23:54N 58°58' W 003°18'0 0.0
2017-Aug-13 23:24N 58°58' W 003°18'0 0.0
2017-Aug-13 23:00N 58°58' W 003°18'0 0.0
2017-Aug-13 22:29N 58°58' W 003°18'0 0.0
2017-Aug-13 22:00N 58°58' W 003°18'0 0.0
2017-Aug-13 21:30N 58°58' W 003°18'0 0.0
2017-Aug-13 21:00N 58°58' W 003°18'0 0.0
2017-Aug-13 20:30N 58°58' W 003°18'0 0.0
2017-Aug-13 20:00N 58°58' W 003°18'0 0.0
2017-Aug-13 19:30N 58°58' W 003°18'5 9.3
2017-Aug-13 19:00N 58°55' W 003°25'917.3
2017-Aug-13 18:31N 58°47' W 003°29'916.9
2017-Aug-13 18:00N 58°38' W 003°31'2 3.9
2017-Aug-13 17:30N 58°37' W 003°32'2 4.0
2017-Aug-13 16:59N 58°39' W 003°31'918.3
2017-Aug-13 16:30N 58°47' W 003°28'917.2
2017-Aug-13 16:00N 58°56' W 003°25'4 8.8
2017-Aug-13 15:30N 58°58' W 003°18'0 0.0
2017-Aug-13 15:00N 58°58' W 003°18'0 0.0
2017-Aug-13 14:30N 58°58' W 003°18'1 2.4
2017-Aug-13 14:00N 58°57' W 003°19'815.0
2017-Aug-13 13:30N 58°51' W 003°28'816.4
2017-Aug-13 13:00N 58°43' W 003°30'612.6
2017-Aug-13 12:30N 58°37' W 003°32'0 0.0
2017-Aug-13 12:01N 58°37' W 003°32'713.3
2017-Aug-13 11:30N 58°43' W 003°30'917.7
2017-Aug-13 11:00N 58°52' W 003°28'714.1
2017-Aug-13 10:30N 58°57' W 003°18'1 2.0
2017-Aug-13 10:00N 58°58' W 003°18'0 0.0
2017-Aug-13 09:30N 58°58' W 003°18'510.9
2017-Aug-13 09:00N 58°55' W 003°26'917.2
2017-Aug-13 08:30N 58°46' W 003°30'816.9
2017-Aug-13 08:01N 58°38' W 003°31'1 2.6
2017-Aug-13 07:30N 58°37' W 003°32'3 5.1
2017-Aug-13 07:00N 58°39' W 003°31'917.4
2017-Aug-13 06:30N 58°48' W 003°29'917.0
2017-Aug-13 06:00N 58°56' W 003°25'4 8.4
2017-Aug-13 05:30N 58°58' W 003°18'0 0.0
2017-Aug-13 05:00N 58°58' W 003°18'0 0.0
2017-Aug-13 04:30N 58°58' W 003°18'0 0.0
2017-Aug-13 04:00N 58°58' W 003°18'0 0.0
2017-Aug-13 03:30N 58°58' W 003°18'0 0.0
2017-Aug-13 03:00N 58°58' W 003°18'0 0.0
2017-Aug-13 02:30N 58°58' W 003°18'0 0.0
2017-Aug-13 02:00N 58°58' W 003°18'0 0.0
2017-Aug-13 01:30N 58°58' W 003°18'0 0.0
2017-Aug-13 01:00N 58°58' W 003°18'0 0.0
2017-Aug-13 00:30N 58°58' W 003°18'0 0.0
2017-Aug-13 00:00N 58°58' W 003°18'0 0.0
2017-Aug-12 23:30N 58°58' W 003°18'0 0.0
2017-Aug-12 23:00N 58°58' W 003°18'0 0.0
2017-Aug-12 22:30N 58°58' W 003°18'0 0.0
2017-Aug-12 22:00N 58°58' W 003°18'0 0.0
2017-Aug-12 21:24N 58°58' W 003°18'0 0.0
2017-Aug-12 21:00N 58°58' W 003°18'0 0.0
2017-Aug-12 20:30N 58°58' W 003°18'5 9.0
2017-Aug-12 20:00N 58°56' W 003°25'917.0
2017-Aug-12 19:30N 58°48' W 003°31'816.6
2017-Aug-12 19:00N 58°39' W 003°32'3 5.1
2017-Aug-12 18:30N 58°37' W 003°32'3 6.3
2017-Aug-12 18:00N 58°40' W 003°31'918.0
2017-Aug-12 17:30N 58°49' W 003°28'816.6
2017-Aug-12 17:00N 58°56' W 003°23'3 5.9
2017-Aug-12 16:28N 58°58' W 003°18'0 0.0
2017-Aug-12 15:58N 58°58' W 003°18'0 0.0
2017-Aug-12 15:28N 58°58' W 003°18'0 0.0
2017-Aug-12 14:58N 58°58' W 003°18'0 0.0
2017-Aug-12 14:22N 58°58' W 003°18'1 1.8
2017-Aug-12 14:00N 58°57' W 003°17'713.8
2017-Aug-12 13:30N 58°53' W 003°27'816.3
2017-Aug-12 13:00N 58°45' W 003°30'816.3
2017-Aug-12 12:30N 58°37' W 003°32'0 0.3
2017-Aug-12 12:00N 58°37' W 003°32'1 2.2
2017-Aug-12 11:30N 58°38' W 003°31'917.6
2017-Aug-12 11:00N 58°46' W 003°31'918.2
2017-Aug-12 10:30N 58°55' W 003°26'510.0
2017-Aug-12 10:00N 58°58' W 003°18'0 0.0
2017-Aug-12 09:30N 58°58' W 003°18'3 6.8
2017-Aug-12 09:00N 58°56' W 003°24'816.0
2017-Aug-12 08:30N 58°49' W 003°30'1116.2
2017-Aug-12 07:51N 58°38' W 003°31'2 5.1
2017-Aug-12 07:30N 58°37' W 003°32'0 0.3
2017-Aug-12 07:00N 58°37' W 003°32'816.5
2017-Aug-12 06:30N 58°45' W 003°30'917.1
2017-Aug-12 06:00N 58°53' W 003°28'713.3
2017-Aug-12 05:30N 58°57' W 003°18'0 0.6
2017-Aug-12 05:00N 58°58' W 003°18'0 0.0
2017-Aug-12 04:30N 58°58' W 003°18'0 0.0
2017-Aug-12 04:00N 58°58' W 003°18'0 0.0
2017-Aug-12 03:30N 58°58' W 003°18'0 0.0
2017-Aug-12 03:00N 58°58' W 003°18'0 0.0
2017-Aug-12 02:30N 58°58' W 003°18'0 0.0
2017-Aug-12 02:00N 58°58' W 003°18'0 0.0
2017-Aug-12 01:30N 58°58' W 003°18'0 0.0
2017-Aug-12 01:00N 58°58' W 003°18'0 0.0
2017-Aug-12 00:30N 58°58' W 003°18'0 0.0
2017-Aug-12 00:00N 58°58' W 003°18'0 0.0
2017-Aug-11 23:30N 58°58' W 003°18'0 0.0
2017-Aug-11 22:57N 58°58' W 003°18'0 0.0
2017-Aug-11 22:30N 58°58' W 003°18'0 0.0
2017-Aug-11 21:57N 58°58' W 003°18'0 0.0
2017-Aug-11 21:27N 58°58' W 003°18'0 0.0
2017-Aug-11 20:57N 58°58' W 003°18'0 0.0
2017-Aug-11 20:30N 58°58' W 003°18'0 0.0
2017-Aug-11 20:00N 58°58' W 003°18'1 1.5
2017-Aug-11 19:30N 58°57' W 003°17'714.9
2017-Aug-11 19:00N 58°52' W 003°28'917.3
2017-Aug-11 18:30N 58°43' W 003°30'713.9
2017-Aug-11 18:00N 58°37' W 003°32'0 0.0
2017-Aug-11 17:23N 58°37' W 003°32'411.6
2017-Aug-11 17:00N 58°41' W 003°31'816.8
2017-Aug-11 16:31N 58°49' W 003°30'815.5
2017-Aug-11 16:00N 58°56' W 003°24'3 6.7
2017-Aug-11 15:30N 58°58' W 003°18'0 0.0
2017-Aug-11 15:00N 58°58' W 003°18'0 0.0
2017-Aug-11 14:29N 58°58' W 003°18'6 6.0
2017-Aug-11 13:30N 58°54' W 003°27'917.3
2017-Aug-11 13:00N 58°46' W 003°30'917.2
2017-Aug-11 12:30N 58°37' W 003°32'1 1.2
2017-Aug-11 12:00N 58°37' W 003°32'2 4.5
2017-Aug-11 11:30N 58°39' W 003°31'917.0
2017-Aug-11 11:00N 58°47' W 003°30'816.9
2017-Aug-11 10:30N 58°55' W 003°25'5 9.3
2017-Aug-11 10:00N 58°58' W 003°18'0 0.1
2017-Aug-11 09:30N 58°58' W 003°18'2 4.4
2017-Aug-11 09:00N 58°57' W 003°22'815.3
2017-Aug-11 08:30N 58°50' W 003°28'917.1
2017-Aug-11 08:00N 58°41' W 003°30'5 8.6
2017-Aug-11 07:26N 58°37' W 003°32'2 4.1
2017-Aug-11 06:55N 58°39' W 003°31'717.0
2017-Aug-11 06:30N 58°46' W 003°30'816.4
2017-Aug-11 06:00N 58°54' W 003°27'612.3
2017-Aug-11 05:31N 58°58' W 003°18'0 0.3
2017-Aug-11 04:58N 58°58' W 003°18'0 0.0
2017-Aug-11 04:28N 58°58' W 003°18'0 0.0
2017-Aug-11 03:58N 58°58' W 003°18'0 0.0
2017-Aug-11 03:28N 58°58' W 003°18'0 0.0
2017-Aug-11 02:58N 58°58' W 003°18'0 0.0
2017-Aug-11 02:28N 58°58' W 003°18'0 0.0
2017-Aug-11 01:58N 58°58' W 003°18'0 0.0
2017-Aug-11 01:28N 58°58' W 003°18'0 0.0
2017-Aug-11 00:58N 58°58' W 003°18'0 0.0
2017-Aug-11 00:28N 58°58' W 003°18'0 0.0
2017-Aug-10 23:58N 58°58' W 003°18'0 0.0
2017-Aug-10 23:28N 58°58' W 003°18'0 0.0
2017-Aug-10 22:58N 58°58' W 003°18'0 0.0
2017-Aug-10 22:28N 58°58' W 003°18'0 0.0
2017-Aug-10 21:58N 58°58' W 003°18'0 0.0
2017-Aug-10 21:28N 58°58' W 003°18'0 0.0
2017-Aug-10 20:58N 58°58' W 003°18'  

Dump ship's entire track history